createdAt,value
2019-04-06T00:00:22.899Z,96853.42
2019-04-06T00:05:23.868Z,96853.24
2019-04-06T00:10:24.752Z,96859.72
2019-04-06T00:15:25.741Z,96855.84
2019-04-06T00:20:26.626Z,96858.31
2019-04-06T00:25:27.501Z,96857.98
2019-04-06T00:30:30.380Z,96860.95
2019-04-06T00:35:31.270Z,96858.35
2019-04-06T00:40:32.231Z,96861.13
2019-04-06T00:45:33.624Z,96861.36
2019-04-06T00:50:34.482Z,96860.25
2019-04-06T00:55:35.375Z,96854.21
2019-04-06T01:00:36.245Z,96861.69
2019-04-06T01:05:37.221Z,96872.70
2019-04-06T01:10:38.189Z,96877.19
2019-04-06T01:15:39.083Z,96885.98
2019-04-06T01:20:40.052Z,96882.94
2019-04-06T01:25:40.947Z,96881.64
2019-04-06T01:30:41.820Z,96884.65
2019-04-06T01:35:42.697Z,96879.50
2019-04-06T01:40:43.669Z,96873.71
2019-04-06T01:45:44.542Z,96881.33
2019-04-06T01:50:45.416Z,96876.33
2019-04-06T01:55:46.295Z,96875.56
2019-04-06T02:01:01.136Z,96871.25
2019-04-06T02:06:02.108Z,96882.20
2019-04-06T02:11:03.864Z,96890.87
2019-04-06T02:16:05.233Z,96886.53
2019-04-06T02:21:06.084Z,96890.77
2019-04-06T02:26:06.988Z,96885.05
2019-04-06T02:31:09.898Z,96894.89
2019-04-06T02:36:29.740Z,96896.01
2019-04-06T02:41:42.036Z,96889.01
2019-04-06T02:46:43.183Z,96887.47
2019-04-06T02:51:44.025Z,96884.03
2019-04-06T02:56:47.390Z,96883.27
2019-04-06T03:01:48.009Z,96891.17
2019-04-06T03:06:49.048Z,96884.67
2019-04-06T03:11:50.052Z,96880.73
2019-04-06T03:16:50.941Z,96880.02
2019-04-06T03:21:51.978Z,96885.35
2019-04-06T03:27:00.990Z,96889.69
2019-04-06T03:31:55.783Z,96889.13
2019-04-06T03:36:56.642Z,96893.66
2019-04-06T03:41:57.599Z,96892.91
2019-04-06T03:46:58.739Z,96891.05
2019-04-06T03:51:59.985Z,96899.75
2019-04-06T03:57:13.592Z,96890.27
2019-04-06T04:02:03.629Z,96890.70
2019-04-06T04:07:04.510Z,96894.59
2019-04-06T04:12:05.479Z,96888.75
2019-04-06T04:17:06.373Z,96896.31
2019-04-06T04:22:07.246Z,96891.80
2019-04-06T04:27:08.358Z,96901.54
2019-04-06T04:32:09.395Z,96908.40
2019-04-06T04:37:10.264Z,96908.42
2019-04-06T04:42:11.157Z,96913.87
2019-04-06T04:47:12.658Z,96922.63
2019-04-06T04:52:13.570Z,96922.52
2019-04-06T04:57:14.439Z,96926.87
2019-04-06T05:02:15.313Z,96929.64
2019-04-06T05:07:16.259Z,96926.40
2019-04-06T05:12:17.253Z,96935.69
2019-04-06T05:17:18.144Z,96939.84
2019-04-06T05:22:19.023Z,96945.02
2019-04-06T05:27:20.192Z,96944.64
2019-04-06T05:32:21.063Z,96947.35
2019-04-06T05:37:22.029Z,96952.51
2019-04-06T05:42:23.540Z,96953.45
2019-04-06T05:47:25.095Z,96955.97
2019-04-06T05:52:26.090Z,96969.02
2019-04-06T05:57:27.618Z,96970.65
2019-04-06T06:02:28.493Z,96978.91
2019-04-06T06:07:29.373Z,96979.58
2019-04-06T06:12:30.264Z,96983.59
2019-04-06T06:17:31.158Z,96984.75
2019-04-06T06:22:32.038Z,96980.48
2019-04-06T06:27:33.024Z,96991.77
2019-04-06T06:32:33.981Z,96996.09
2019-04-06T06:37:35.022Z,96995.39
2019-04-06T06:42:36.054Z,96996.57
2019-04-06T06:47:37.044Z,97004.26
2019-04-06T06:52:37.918Z,97002.05
2019-04-06T06:57:38.794Z,97013.61
2019-04-06T07:02:39.792Z,97012.95
2019-04-06T07:07:40.657Z,97002.27
2019-04-06T07:12:41.557Z,97006.17
2019-04-06T07:17:42.553Z,97005.37
2019-04-06T07:22:43.425Z,96996.02
2019-04-06T07:27:44.301Z,97017.53
2019-04-06T07:32:45.175Z,97012.13
2019-04-06T07:37:46.054Z,97014.02
2019-04-06T07:42:46.929Z,97008.50
2019-04-06T07:47:47.804Z,97012.25
2019-04-06T07:52:48.680Z,97012.86
2019-04-06T07:57:49.699Z,97015.84
2019-04-06T08:02:50.535Z,97008.13
2019-04-06T08:07:51.412Z,97012.16
2019-04-06T08:12:52.286Z,97004.53
2019-04-06T08:17:53.168Z,97004.65
2019-04-06T08:22:54.053Z,97002.14
2019-04-06T08:27:55.051Z,96995.41
2019-04-06T08:32:55.919Z,96991.59
2019-04-06T08:37:56.805Z,96997.98
2019-04-06T08:42:57.772Z,96994.62
2019-04-06T08:47:58.968Z,96995.33
2019-04-06T08:53:02.829Z,96986.27
2019-04-06T08:58:03.716Z,96986.27
2019-04-06T09:03:04.723Z,96991.96
2019-04-06T09:08:05.777Z,96995.31
2019-04-06T09:13:06.668Z,96993.64
2019-04-06T09:18:07.569Z,96999.69
2019-04-06T09:23:08.439Z,97000.33
2019-04-06T09:28:09.574Z,96999.00
2019-04-06T09:33:10.624Z,97004.69
2019-04-06T09:38:17.822Z,96997.95
2019-04-06T09:43:18.881Z,96992.58
2019-04-06T09:48:40.070Z,96995.92
2019-04-06T09:53:45.993Z,97001.34
2019-04-06T09:58:51.707Z,96990.15
2019-04-06T10:03:57.707Z,96980.63
2019-04-06T10:09:09.546Z,96981.55
2019-04-06T10:14:24.159Z,96983.17
2019-04-06T10:19:45.025Z,96984.27
2019-04-06T10:24:56.908Z,96973.07
2019-04-06T10:30:16.198Z,96973.84
2019-04-06T10:35:27.911Z,96970.11
2019-04-06T10:40:30.751Z,96965.69
2019-04-06T10:45:33.540Z,96963.23
2019-04-06T10:50:48.603Z,96953.94
2019-04-06T10:55:51.559Z,96944.52
2019-04-06T11:01:11.153Z,96952.45
2019-04-06T11:06:14.095Z,96947.80
2019-04-06T11:11:33.437Z,96937.00
2019-04-06T11:16:42.147Z,96931.70
2019-04-06T11:21:53.902Z,96923.80
2019-04-06T11:27:09.101Z,96924.93
2019-04-06T11:32:15.077Z,96909.28
2019-04-06T11:37:17.847Z,96902.03
2019-04-06T11:42:20.639Z,96889.38
2019-04-06T11:47:23.425Z,96873.02
2019-04-06T11:52:42.734Z,96877.11
2019-04-06T11:58:03.682Z,96877.09
2019-04-06T12:03:18.707Z,96864.84
2019-04-06T12:08:21.765Z,96863.70
2019-04-06T12:13:24.758Z,96850.61
2019-04-06T12:18:30.580Z,96848.90
2019-04-06T12:23:36.512Z,96842.64
2019-04-06T12:28:48.146Z,96840.91
2019-04-06T12:33:50.923Z,96833.55
2019-04-06T12:39:03.085Z,96826.45
2019-04-06T12:44:08.685Z,96825.19
2019-04-06T12:49:28.040Z,96823.25
2019-04-06T12:54:36.802Z,96814.91
2019-04-06T12:59:56.184Z,96804.48
2019-04-06T13:04:59.341Z,96800.61
2019-04-06T13:10:04.859Z,96791.09
2019-04-06T13:15:11.148Z,96788.34
2019-04-06T13:20:16.963Z,96789.47
2019-04-06T13:25:25.669Z,96788.88
2019-04-06T13:30:28.757Z,96776.95
2019-04-06T13:35:46.793Z,96775.31
2019-04-06T13:41:05.999Z,96780.09
2019-04-06T13:46:20.753Z,96776.80
2019-04-06T13:51:38.601Z,96774.52
2019-04-06T13:56:41.364Z,96764.50
2019-04-06T14:01:44.156Z,96761.03
2019-04-06T14:06:49.663Z,96761.05
2019-04-06T14:12:07.768Z,96762.46
2019-04-06T14:17:10.891Z,96766.17
2019-04-06T14:22:16.387Z,96772.54
2019-04-06T14:27:35.789Z,96770.28
2019-04-06T14:32:41.280Z,96771.87
2019-04-06T14:37:46.620Z,96770.42
2019-04-06T14:42:55.419Z,96778.55
2019-04-06T14:47:58.329Z,96780.11
2019-04-06T14:53:03.967Z,96771.03
2019-04-06T14:58:06.851Z,96763.48
2019-04-06T15:03:09.639Z,96769.81
2019-04-06T15:08:21.446Z,96766.39
2019-04-06T15:13:27.202Z,96767.61
2019-04-06T15:18:36.331Z,96765.33
2019-04-06T15:23:56.017Z,96768.36
2019-04-06T15:29:01.517Z,96756.67
2019-04-06T15:34:13.563Z,96757.81
2019-04-06T15:39:19.322Z,96757.11
2019-04-06T15:44:39.119Z,96760.92
2019-04-06T15:49:58.392Z,96763.23
2019-04-06T15:55:04.178Z,96759.03
2019-04-06T16:00:19.288Z,96767.93
2019-04-06T16:05:31.015Z,96762.83
2019-04-06T16:10:34.562Z,96766.00
2019-04-06T16:15:43.685Z,96769.95
2019-04-06T16:20:49.779Z,96767.28
2019-04-06T16:26:07.776Z,96779.95
2019-04-06T16:31:13.674Z,96779.75
2019-04-06T16:36:19.463Z,96776.89
2019-04-06T16:41:25.711Z,96775.61
2019-04-06T16:46:37.440Z,96775.05
2019-04-06T16:51:46.174Z,96786.83
2019-04-06T16:56:54.985Z,96790.63
2019-04-06T17:02:22.066Z,96795.98
2019-04-06T17:07:20.443Z,96801.14
2019-04-06T17:12:23.257Z,96806.27
2019-04-06T17:17:28.721Z,96798.59
2019-04-06T17:22:31.510Z,96806.52
2019-04-06T17:27:34.851Z,96807.42
2019-04-06T17:32:52.625Z,96808.23
2019-04-06T17:38:12.300Z,96809.55
2019-04-06T17:43:33.778Z,96816.72
2019-04-06T17:48:36.660Z,96823.59
2019-04-06T17:53:39.799Z,96829.47
2019-04-06T17:58:42.671Z,96829.61
2019-04-06T18:04:02.038Z,96829.34
2019-04-06T18:09:19.895Z,96839.81
2019-04-06T18:14:21.521Z,96835.09
2019-04-06T18:19:22.407Z,96841.94
2019-04-06T18:24:23.396Z,96852.81
2019-04-06T18:29:24.273Z,96849.88
2019-04-06T18:34:25.159Z,96853.36
2019-04-06T18:39:27.736Z,96853.42
2019-04-06T18:44:28.817Z,96864.84
2019-04-06T18:49:29.688Z,96868.22
2019-04-06T18:54:30.603Z,96871.91
2019-04-06T18:59:31.460Z,96871.91
2019-04-06T19:04:32.835Z,96884.66
2019-04-06T19:09:34.368Z,96884.48
2019-04-06T19:14:35.251Z,96888.52
2019-04-06T19:19:36.378Z,96896.19
2019-04-06T19:24:37.401Z,96887.30
2019-04-06T19:29:38.482Z,96889.98
2019-04-06T19:34:39.361Z,96897.98
2019-04-06T19:39:40.239Z,96901.52
2019-04-06T19:44:41.113Z,96894.61
2019-04-06T19:49:41.988Z,96895.62
2019-04-06T19:54:42.864Z,96893.41
2019-04-06T19:59:43.736Z,96884.53
2019-04-06T20:04:44.611Z,96880.34
2019-04-06T20:09:45.596Z,96871.45
2019-04-06T20:14:46.464Z,96875.42
2019-04-06T20:19:47.393Z,96872.72
2019-04-06T20:24:48.392Z,96858.44
2019-04-06T20:29:49.729Z,96861.39
2019-04-06T20:34:50.784Z,96852.95
2019-04-06T20:39:51.657Z,96846.81
2019-04-06T20:44:52.682Z,96842.62
2019-04-06T20:49:53.847Z,96843.06
2019-04-06T20:54:54.993Z,96838.18
2019-04-06T20:59:56.124Z,96853.06
2019-04-06T21:04:57.125Z,96842.70
2019-04-06T21:09:58.474Z,96836.27
2019-04-06T21:14:59.836Z,96832.17
2019-04-06T21:20:01.558Z,96831.25
2019-04-06T21:25:03.679Z,96821.56
2019-04-06T21:30:06.006Z,96818.14
2019-04-06T21:35:06.998Z,96826.69
2019-04-06T21:40:08.261Z,96820.56
2019-04-06T21:45:09.547Z,96815.91
2019-04-06T21:50:11.112Z,96808.54
2019-04-06T21:55:12.111Z,96811.83
2019-04-06T22:00:15.299Z,96814.22
2019-04-06T22:05:16.156Z,96811.11
2019-04-06T22:10:17.299Z,96805.59
2019-04-06T22:15:18.403Z,96802.04
2019-04-06T22:20:19.740Z,96795.92
2019-04-06T22:25:21.035Z,96796.05
2019-04-06T22:30:22.526Z,96799.48
2019-04-06T22:35:23.619Z,96789.69
2019-04-06T22:40:24.721Z,96783.11
2019-04-06T22:45:28.280Z,96774.42
2019-04-06T22:50:29.757Z,96768.16
2019-04-06T22:55:30.628Z,96765.32
2019-04-06T23:00:33.672Z,96766.81
2019-04-06T23:05:37.014Z,96763.97
2019-04-06T23:10:38.063Z,96761.07
2019-04-06T23:15:39.497Z,96756.52
2019-04-06T23:20:40.520Z,96752.50
2019-04-06T23:25:41.511Z,96755.95
2019-04-06T23:30:42.587Z,96747.88
2019-04-06T23:35:43.456Z,96749.62
2019-04-06T23:40:44.332Z,96745.13
2019-04-06T23:45:45.165Z,96750.73
2019-04-06T23:50:46.144Z,96741.32
2019-04-06T23:55:47.017Z,96738.73
